sensor_id;sensor_type;location;lat;lon;timestamp;pressure;altitude;pressure_sealevel;temperature;humidity
45369;BME280;51342;55.250;37.668;2023-05-16T00:04:10;100220.00;;;5.85;68.49
45369;BME280;51342;55.250;37.668;2023-05-16T00:06:42;100211.41;;;5.84;68.35
45369;BME280;51342;55.250;37.668;2023-05-16T00:09:13;100212.53;;;5.88;68.44
45369;BME280;51342;55.250;37.668;2023-05-16T00:11:44;100216.66;;;5.86;68.07
45369;BME280;51342;55.250;37.668;2023-05-16T00:14:18;100215.25;;;5.79;67.78
45369;BME280;51342;55.250;37.668;2023-05-16T00:16:49;100218.44;;;5.77;67.96
45369;BME280;51342;55.250;37.668;2023-05-16T00:19:21;100220.38;;;5.79;67.99
45369;BME280;51342;55.250;37.668;2023-05-16T00:21:52;100222.41;;;5.83;68.02
45369;BME280;51342;55.250;37.668;2023-05-16T00:24:23;100226.25;;;5.78;68.09
45369;BME280;51342;55.250;37.668;2023-05-16T00:26:55;100228.31;;;5.72;68.29
45369;BME280;51342;55.250;37.668;2023-05-16T00:29:27;100225.63;;;5.71;68.46
45369;BME280;51342;55.250;37.668;2023-05-16T00:31:59;100221.25;;;5.70;68.67
45369;BME280;51342;55.250;37.668;2023-05-16T00:34:31;100224.84;;;5.72;68.98
45369;BME280;51342;55.250;37.668;2023-05-16T00:37:02;100229.84;;;5.70;69.07
45369;BME280;51342;55.250;37.668;2023-05-16T00:39:35;100218.19;;;5.64;69.18
45369;BME280;51342;55.250;37.668;2023-05-16T00:42:06;100217.00;;;5.60;69.55
45369;BME280;51342;55.250;37.668;2023-05-16T00:44:37;100221.63;;;5.64;69.74
45369;BME280;51342;55.250;37.668;2023-05-16T00:47:09;100221.75;;;5.66;69.80
45369;BME280;51342;55.250;37.668;2023-05-16T00:49:41;100225.00;;;5.73;70.01
45369;BME280;51342;55.250;37.668;2023-05-16T00:52:13;100219.59;;;5.70;69.95
45369;BME280;51342;55.250;37.668;2023-05-16T00:54:44;100215.34;;;5.71;70.26
45369;BME280;51342;55.250;37.668;2023-05-16T00:57:17;100224.34;;;5.76;70.02
45369;BME280;51342;55.250;37.668;2023-05-16T00:59:49;100240.41;;;5.73;69.98
45369;BME280;51342;55.250;37.668;2023-05-16T01:02:22;100246.16;;;5.71;70.40
45369;BME280;51342;55.250;37.668;2023-05-16T01:04:53;100229.59;;;5.67;70.67
45369;BME280;51342;55.250;37.668;2023-05-16T01:07:25;100233.19;;;5.69;70.92
45369;BME280;51342;55.250;37.668;2023-05-16T01:09:57;100238.34;;;5.69;71.20
45369;BME280;51342;55.250;37.668;2023-05-16T01:15:25;100240.41;;;5.73;70.99
45369;BME280;51342;55.250;37.668;2023-05-16T01:26:20;100236.78;;;5.71;71.33
45369;BME280;51342;55.250;37.668;2023-05-16T01:28:53;100248.09;;;5.73;71.33
45369;BME280;51342;55.250;37.668;2023-05-16T01:31:25;100239.34;;;5.71;71.45
45369;BME280;51342;55.250;37.668;2023-05-16T01:33:56;100227.16;;;5.69;71.65
45369;BME280;51342;55.250;37.668;2023-05-16T01:39:42;100231.66;;;5.71;71.48
45369;BME280;51342;55.250;37.668;2023-05-16T01:42:15;100227.25;;;5.50;71.57
45369;BME280;51342;55.250;37.668;2023-05-16T01:47:46;100219.19;;;5.66;71.56
45369;BME280;51342;55.250;37.668;2023-05-16T01:50:24;100221.88;;;5.67;71.49
45369;BME280;51342;55.250;37.668;2023-05-16T01:53:08;100213.28;;;5.46;71.76
45369;BME280;51342;55.250;37.668;2023-05-16T01:55:50;100216.38;;;5.63;71.63
45369;BME280;51342;55.250;37.668;2023-05-16T01:58:25;100213.44;;;5.68;71.24
45369;BME280;51342;55.250;37.668;2023-05-16T02:01:03;100216.91;;;5.69;71.63
45369;BME280;51342;55.250;37.668;2023-05-16T02:03:35;100217.03;;;5.80;71.66
45369;BME280;51342;55.250;37.668;2023-05-16T02:06:06;100224.25;;;5.95;71.48
45369;BME280;51342;55.250;37.668;2023-05-16T02:08:38;100218.22;;;6.04;71.06
45369;BME280;51342;55.250;37.668;2023-05-16T02:11:09;100227.44;;;6.23;71.15
45369;BME280;51342;55.250;37.668;2023-05-16T02:13:41;100237.06;;;6.35;70.88
45369;BME280;51342;55.250;37.668;2023-05-16T02:16:12;100230.88;;;6.44;70.86
45369;BME280;51342;55.250;37.668;2023-05-16T02:18:44;100227.88;;;6.59;70.68
45369;BME280;51342;55.250;37.668;2023-05-16T02:21:16;100229.25;;;6.76;70.41
45369;BME280;51342;55.250;37.668;2023-05-16T02:23:47;100230.13;;;6.87;70.40
45369;BME280;51342;55.250;37.668;2023-05-16T02:26:18;100226.66;;;7.08;69.99
45369;BME280;51342;55.250;37.668;2023-05-16T02:28:50;100236.50;;;7.24;69.53
45369;BME280;51342;55.250;37.668;2023-05-16T02:31:26;100236.91;;;7.40;69.31
45369;BME280;51342;55.250;37.668;2023-05-16T02:33:58;100234.09;;;7.59;69.01
45369;BME280;51342;55.250;37.668;2023-05-16T02:36:29;100242.34;;;7.77;68.87
45369;BME280;51342;55.250;37.668;2023-05-16T02:39:01;100234.44;;;7.97;68.28
45369;BME280;51342;55.250;37.668;2023-05-16T02:41:34;100244.59;;;8.18;68.08
45369;BME280;51342;55.250;37.668;2023-05-16T02:44:05;100234.78;;;8.36;67.51
45369;BME280;51342;55.250;37.668;2023-05-16T02:46:36;100232.78;;;8.55;67.51
45369;BME280;51342;55.250;37.668;2023-05-16T02:49:09;100224.47;;;8.83;66.84
45369;BME280;51342;55.250;37.668;2023-05-16T02:51:40;100216.97;;;8.97;66.76
45369;BME280;51342;55.250;37.668;2023-05-16T02:54:12;100224.66;;;9.21;66.34
45369;BME280;51342;55.250;37.668;2023-05-16T02:56:43;100221.66;;;9.40;65.90
45369;BME280;51342;55.250;37.668;2023-05-16T02:59:15;100222.03;;;9.57;65.42
45369;BME280;51342;55.250;37.668;2023-05-16T03:01:46;100221.44;;;9.73;65.30
45369;BME280;51342;55.250;37.668;2023-05-16T03:04:18;100225.72;;;9.86;64.73
45369;BME280;51342;55.250;37.668;2023-05-16T03:06:49;100214.25;;;9.94;64.32
45369;BME280;51342;55.250;37.668;2023-05-16T03:09:21;100221.13;;;10.07;64.49
45369;BME280;51342;55.250;37.668;2023-05-16T03:11:52;100221.75;;;10.16;64.14
45369;BME280;51342;55.250;37.668;2023-05-16T03:14:24;100219.59;;;10.22;64.33
45369;BME280;51342;55.250;37.668;2023-05-16T03:16:55;100221.91;;;10.31;64.20
45369;BME280;51342;55.250;37.668;2023-05-16T03:19:27;100229.97;;;10.49;64.10
45369;BME280;51342;55.250;37.668;2023-05-16T03:21:58;100220.94;;;10.69;63.51
45369;BME280;51342;55.250;37.668;2023-05-16T03:24:30;100216.28;;;10.90;63.28
45369;BME280;51342;55.250;37.668;2023-05-16T03:27:01;100214.25;;;11.12;64.20
45369;BME280;51342;55.250;37.668;2023-05-16T03:29:34;100219.25;;;11.37;63.60
45369;BME280;51342;55.250;37.668;2023-05-16T03:32:06;100221.88;;;11.65;63.54
45369;BME280;51342;55.250;37.668;2023-05-16T03:34:38;100217.22;;;11.87;62.75
45369;BME280;51342;55.250;37.668;2023-05-16T03:37:09;100224.75;;;12.12;62.88
45369;BME280;51342;55.250;37.668;2023-05-16T03:39:41;100227.00;;;12.36;62.01
45369;BME280;51342;55.250;37.668;2023-05-16T03:42:12;100220.25;;;12.69;61.16
45369;BME280;51342;55.250;37.668;2023-05-16T03:44:45;100231.59;;;13.00;60.14
45369;BME280;51342;55.250;37.668;2023-05-16T03:47:16;100222.34;;;13.37;57.28
45369;BME280;51342;55.250;37.668;2023-05-16T03:49:48;100220.28;;;13.62;56.01
45369;BME280;51342;55.250;37.668;2023-05-16T03:52:19;100222.44;;;13.87;55.02
45369;BME280;51342;55.250;37.668;2023-05-16T03:54:51;100226.88;;;14.06;54.11
45369;BME280;51342;55.250;37.668;2023-05-16T03:57:22;100223.53;;;14.25;53.70
45369;BME280;51342;55.250;37.668;2023-05-16T03:59:54;100217.88;;;14.50;52.83
45369;BME280;51342;55.250;37.668;2023-05-16T04:02:26;100218.59;;;14.64;52.57
45369;BME280;51342;55.250;37.668;2023-05-16T04:04:57;100220.50;;;14.85;50.94
45369;BME280;51342;55.250;37.668;2023-05-16T04:07:29;100221.53;;;15.07;52.01
45369;BME280;51342;55.250;37.668;2023-05-16T04:10:02;100229.41;;;15.26;49.63
45369;BME280;51342;55.250;37.668;2023-05-16T04:12:34;100216.50;;;15.29;48.75
45369;BME280;51342;55.250;37.668;2023-05-16T04:15:06;100220.06;;;15.31;47.89
45369;BME280;51342;55.250;37.668;2023-05-16T04:17:39;100226.41;;;15.36;50.08
45369;BME280;51342;55.250;37.668;2023-05-16T04:20:11;100224.78;;;15.58;48.19
45369;BME280;51342;55.250;37.668;2023-05-16T04:22:45;100230.13;;;15.79;48.14
45369;BME280;51342;55.250;37.668;2023-05-16T04:25:18;100228.59;;;16.03;48.85
45369;BME280;51342;55.250;37.668;2023-05-16T04:27:51;100232.88;;;16.22;48.13
45369;BME280;51342;55.250;37.668;2023-05-16T04:30:25;100233.50;;;16.36;46.98
45369;BME280;51342;55.250;37.668;2023-05-16T04:32:57;100227.06;;;16.49;46.34
45369;BME280;51342;55.250;37.668;2023-05-16T04:35:30;100228.03;;;16.51;46.13
45369;BME280;51342;55.250;37.668;2023-05-16T04:38:03;100237.47;;;16.68;46.13
45369;BME280;51342;55.250;37.668;2023-05-16T04:40:36;100243.41;;;16.85;46.33
45369;BME280;51342;55.250;37.668;2023-05-16T04:43:08;100236.81;;;16.94;44.63
45369;BME280;51342;55.250;37.668;2023-05-16T04:45:42;100235.53;;;17.06;44.96
45369;BME280;51342;55.250;37.668;2023-05-16T04:48:15;100244.72;;;17.18;44.85
45369;BME280;51342;55.250;37.668;2023-05-16T04:50:48;100244.44;;;17.33;44.13
45369;BME280;51342;55.250;37.668;2023-05-16T04:53:21;100246.66;;;17.45;44.11
45369;BME280;51342;55.250;37.668;2023-05-16T04:55:53;100246.00;;;17.51;45.28
45369;BME280;51342;55.250;37.668;2023-05-16T04:58:26;100244.22;;;17.49;42.27
45369;BME280;51342;55.250;37.668;2023-05-16T05:01:01;100246.56;;;17.42;42.21
45369;BME280;51342;55.250;37.668;2023-05-16T05:03:39;100245.81;;;17.46;42.89
45369;BME280;51342;55.250;37.668;2023-05-16T05:06:13;100248.66;;;17.52;42.52
45369;BME280;51342;55.250;37.668;2023-05-16T05:08:48;100243.97;;;17.66;42.60
45369;BME280;51342;55.250;37.668;2023-05-16T05:11:23;100242.63;;;17.76;40.88
45369;BME280;51342;55.250;37.668;2023-05-16T05:14:00;100247.56;;;17.92;41.67
45369;BME280;51342;55.250;37.668;2023-05-16T05:16:34;100249.59;;;17.99;40.68
45369;BME280;51342;55.250;37.668;2023-05-16T05:19:08;100256.16;;;18.12;41.21
45369;BME280;51342;55.250;37.668;2023-05-16T05:21:41;100258.28;;;18.22;39.43
45369;BME280;51342;55.250;37.668;2023-05-16T05:24:15;100258.72;;;18.10;39.62
45369;BME280;51342;55.250;37.668;2023-05-16T05:26:48;100260.44;;;18.10;40.90
45369;BME280;51342;55.250;37.668;2023-05-16T05:29:21;100265.06;;;18.17;39.67
45369;BME280;51342;55.250;37.668;2023-05-16T05:31:55;100259.69;;;18.14;40.20
45369;BME280;51342;55.250;37.668;2023-05-16T05:34:32;100249.56;;;18.23;40.18
45369;BME280;51342;55.250;37.668;2023-05-16T05:37:06;100257.19;;;18.41;38.99
45369;BME280;51342;55.250;37.668;2023-05-16T05:39:41;100260.25;;;18.54;39.04
45369;BME280;51342;55.250;37.668;2023-05-16T05:42:15;100258.19;;;18.70;40.08
45369;BME280;51342;55.250;37.668;2023-05-16T05:44:51;100252.50;;;18.83;39.46
45369;BME280;51342;55.250;37.668;2023-05-16T05:47:27;100263.50;;;18.98;37.21
45369;BME280;51342;55.250;37.668;2023-05-16T05:50:03;100254.72;;;18.96;36.62
45369;BME280;51342;55.250;37.668;2023-05-16T05:52:41;100261.72;;;18.97;36.34
45369;BME280;51342;55.250;37.668;2023-05-16T05:55:17;100264.25;;;18.94;36.38
45369;BME280;51342;55.250;37.668;2023-05-16T05:57:51;100266.13;;;18.98;38.58
45369;BME280;51342;55.250;37.668;2023-05-16T06:00:25;100262.78;;;19.02;36.07
45369;BME280;51342;55.250;37.668;2023-05-16T06:02:59;100268.88;;;19.01;36.55
45369;BME280;51342;55.250;37.668;2023-05-16T06:05:36;100268.38;;;19.13;35.22
45369;BME280;51342;55.250;37.668;2023-05-16T06:08:14;100273.00;;;19.22;35.40
45369;BME280;51342;55.250;37.668;2023-05-16T06:10:48;100277.53;;;19.27;36.68
45369;BME280;51342;55.250;37.668;2023-05-16T06:13:23;100272.56;;;19.35;34.29
45369;BME280;51342;55.250;37.668;2023-05-16T06:15:58;100275.03;;;19.30;34.22
45369;BME280;51342;55.250;37.668;2023-05-16T06:18:33;100278.41;;;19.26;34.43
45369;BME280;51342;55.250;37.668;2023-05-16T06:21:12;100277.97;;;19.13;34.16
45369;BME280;51342;55.250;37.668;2023-05-16T06:23:47;100277.78;;;19.06;33.56
45369;BME280;51342;55.250;37.668;2023-05-16T06:26:23;100271.88;;;19.14;35.10
45369;BME280;51342;55.250;37.668;2023-05-16T06:29:02;100276.63;;;19.25;34.68
45369;BME280;51342;55.250;37.668;2023-05-16T06:31:37;100267.16;;;19.30;33.37
45369;BME280;51342;55.250;37.668;2023-05-16T06:34:11;100267.94;;;19.28;33.24
45369;BME280;51342;55.250;37.668;2023-05-16T06:36:46;100266.91;;;19.23;34.65
45369;BME280;51342;55.250;37.668;2023-05-16T06:39:23;100265.31;;;19.28;33.31
45369;BME280;51342;55.250;37.668;2023-05-16T06:41:57;100261.72;;;19.24;33.54
45369;BME280;51342;55.250;37.668;2023-05-16T06:44:35;100264.38;;;19.26;35.90
45369;BME280;51342;55.250;37.668;2023-05-16T06:47:10;100264.63;;;19.33;33.83
45369;BME280;51342;55.250;37.668;2023-05-16T06:49:49;100261.19;;;19.35;32.46
45369;BME280;51342;55.250;37.668;2023-05-16T06:52:22;100256.84;;;19.37;32.51
45369;BME280;51342;55.250;37.668;2023-05-16T06:54:56;100255.16;;;19.39;31.20
45369;BME280;51342;55.250;37.668;2023-05-16T06:57:30;100260.53;;;19.42;31.77
45369;BME280;51342;55.250;37.668;2023-05-16T07:00:06;100269.13;;;19.38;32.17
45369;BME280;51342;55.250;37.668;2023-05-16T07:02:43;100258.47;;;19.33;31.67
45369;BME280;51342;55.250;37.668;2023-05-16T07:05:22;100264.91;;;19.43;34.48
45369;BME280;51342;55.250;37.668;2023-05-16T07:07:59;100261.88;;;19.57;33.04
45369;BME280;51342;55.250;37.668;2023-05-16T07:10:35;100271.59;;;19.60;30.50
45369;BME280;51342;55.250;37.668;2023-05-16T07:13:13;100265.75;;;19.42;29.87
45369;BME280;51342;55.250;37.668;2023-05-16T07:15:48;100257.44;;;19.28;29.72
45369;BME280;51342;55.250;37.668;2023-05-16T07:18:22;100260.69;;;19.19;29.97
45369;BME280;51342;55.250;37.668;2023-05-16T07:20:59;100255.09;;;19.09;30.91
45369;BME280;51342;55.250;37.668;2023-05-16T07:23:33;100250.25;;;19.21;31.24
45369;BME280;51342;55.250;37.668;2023-05-16T07:26:11;100260.34;;;19.36;30.58
45369;BME280;51342;55.250;37.668;2023-05-16T07:28:54;100260.75;;;19.49;30.92
45369;BME280;51342;55.250;37.668;2023-05-16T07:31:33;100262.91;;;19.63;31.97
45369;BME280;51342;55.250;37.668;2023-05-16T07:34:06;100265.75;;;19.69;31.24
45369;BME280;51342;55.250;37.668;2023-05-16T07:36:48;100257.03;;;19.70;29.95
45369;BME280;51342;55.250;37.668;2023-05-16T07:39:26;100260.44;;;19.67;31.20
45369;BME280;51342;55.250;37.668;2023-05-16T07:42:07;100253.53;;;19.71;31.47
45369;BME280;51342;55.250;37.668;2023-05-16T07:44:40;100251.06;;;19.75;30.58
45369;BME280;51342;55.250;37.668;2023-05-16T07:47:14;100257.09;;;19.73;30.03
45369;BME280;51342;55.250;37.668;2023-05-16T07:49:51;100258.13;;;19.49;31.05
45369;BME280;51342;55.250;37.668;2023-05-16T07:52:28;100246.34;;;19.64;30.88
45369;BME280;51342;55.250;37.668;2023-05-16T07:55:06;100256.38;;;19.78;28.29
45369;BME280;51342;55.250;37.668;2023-05-16T07:57:41;100254.56;;;19.76;28.45
45369;BME280;51342;55.250;37.668;2023-05-16T08:00:20;100254.47;;;19.73;30.57
45369;BME280;51342;55.250;37.668;2023-05-16T08:02:58;100261.47;;;19.72;31.03
45369;BME280;51342;55.250;37.668;2023-05-16T08:05:36;100247.41;;;19.70;30.81
45369;BME280;51342;55.250;37.668;2023-05-16T08:08:12;100241.63;;;19.82;30.66
45369;BME280;51342;55.250;37.668;2023-05-16T08:10:48;100251.25;;;19.81;30.82
45369;BME280;51342;55.250;37.668;2023-05-16T08:13:24;100248.81;;;19.89;30.68
45369;BME280;51342;55.250;37.668;2023-05-16T08:16:02;100244.84;;;20.03;32.10
45369;BME280;51342;55.250;37.668;2023-05-16T08:18:43;100249.56;;;20.15;32.10
45369;BME280;51342;55.250;37.668;2023-05-16T08:21:19;100241.81;;;20.20;30.91
45369;BME280;51342;55.250;37.668;2023-05-16T08:23:58;100245.38;;;20.23;31.61
45369;BME280;51342;55.250;37.668;2023-05-16T08:26:33;100242.91;;;20.28;30.70
45369;BME280;51342;55.250;37.668;2023-05-16T08:29:11;100254.28;;;20.28;30.81
45369;BME280;51342;55.250;37.668;2023-05-16T08:31:47;100244.59;;;20.26;29.75
45369;BME280;51342;55.250;37.668;2023-05-16T08:34:25;100248.75;;;20.18;29.26
45369;BME280;51342;55.250;37.668;2023-05-16T08:37:04;100235.53;;;20.15;31.61
45369;BME280;51342;55.250;37.668;2023-05-16T08:39:43;100237.53;;;20.25;33.87
45369;BME280;51342;55.250;37.668;2023-05-16T08:42:20;100237.81;;;20.34;30.52
45369;BME280;51342;55.250;37.668;2023-05-16T08:45:01;100230.84;;;20.36;30.43
45369;BME280;51342;55.250;37.668;2023-05-16T08:47:42;100234.44;;;20.39;31.25
45369;BME280;51342;55.250;37.668;2023-05-16T08:50:21;100231.81;;;20.39;29.69
45369;BME280;51342;55.250;37.668;2023-05-16T08:52:56;100227.41;;;20.38;30.17
45369;BME280;51342;55.250;37.668;2023-05-16T08:55:31;100225.84;;;20.45;31.20
45369;BME280;51342;55.250;37.668;2023-05-16T08:58:06;100226.94;;;20.53;30.99
45369;BME280;51342;55.250;37.668;2023-05-16T09:00:42;100221.00;;;20.60;29.59
45369;BME280;51342;55.250;37.668;2023-05-16T09:03:17;100217.38;;;20.55;28.46
45369;BME280;51342;55.250;37.668;2023-05-16T09:05:56;100221.69;;;20.53;27.77
45369;BME280;51342;55.250;37.668;2023-05-16T09:08:53;100218.16;;;20.53;28.72
45369;BME280;51342;55.250;37.668;2023-05-16T09:11:30;100211.00;;;20.47;26.13
45369;BME280;51342;55.250;37.668;2023-05-16T09:14:06;100213.41;;;20.39;27.45
45369;BME280;51342;55.250;37.668;2023-05-16T09:17:01;100219.41;;;20.34;27.61
45369;BME280;51342;55.250;37.668;2023-05-16T09:19:43;100214.75;;;20.24;28.99
45369;BME280;51342;55.250;37.668;2023-05-16T09:22:25;100209.56;;;20.25;27.76
45369;BME280;51342;55.250;37.668;2023-05-16T09:25:02;100212.00;;;20.19;27.32
45369;BME280;51342;55.250;37.668;2023-05-16T09:27:39;100220.78;;;20.20;29.69
45369;BME280;51342;55.250;37.668;2023-05-16T09:30:20;100210.34;;;20.23;29.34
45369;BME280;51342;55.250;37.668;2023-05-16T09:32:56;100203.63;;;20.34;28.55
45369;BME280;51342;55.250;37.668;2023-05-16T09:35:38;100202.78;;;20.35;27.42
45369;BME280;51342;55.250;37.668;2023-05-16T09:38:18;100202.84;;;20.36;27.99
45369;BME280;51342;55.250;37.668;2023-05-16T09:40:53;100192.44;;;20.41;28.78
45369;BME280;51342;55.250;37.668;2023-05-16T09:43:37;100205.50;;;20.38;28.53
45369;BME280;51342;55.250;37.668;2023-05-16T09:46:17;100212.44;;;20.36;29.36
45369;BME280;51342;55.250;37.668;2023-05-16T09:48:55;100203.56;;;20.31;28.32
45369;BME280;51342;55.250;37.668;2023-05-16T09:51:34;100196.72;;;20.37;29.06
45369;BME280;51342;55.250;37.668;2023-05-16T09:54:09;100200.28;;;20.39;28.08
45369;BME280;51342;55.250;37.668;2023-05-16T09:56:52;100187.81;;;20.31;28.26
45369;BME280;51342;55.250;37.668;2023-05-16T09:59:47;100189.44;;;20.27;27.72
45369;BME280;51342;55.250;37.668;2023-05-16T10:02:21;100187.63;;;20.25;28.41
45369;BME280;51342;55.250;37.668;2023-05-16T10:04:53;100176.34;;;20.29;28.69
45369;BME280;51342;55.250;37.668;2023-05-16T10:07:30;100163.47;;;20.39;29.14
45369;BME280;51342;55.250;37.668;2023-05-16T10:10:08;100176.03;;;20.50;30.95
45369;BME280;51342;55.250;37.668;2023-05-16T10:12:47;100169.94;;;20.51;29.03
45369;BME280;51342;55.250;37.668;2023-05-16T10:15:25;100162.81;;;20.47;28.51
45369;BME280;51342;55.250;37.668;2023-05-16T10:18:05;100169.75;;;20.45;28.33
45369;BME280;51342;55.250;37.668;2023-05-16T10:20:46;100162.69;;;20.42;27.88
45369;BME280;51342;55.250;37.668;2023-05-16T10:23:25;100158.19;;;20.38;28.92
45369;BME280;51342;55.250;37.668;2023-05-16T10:26:03;100151.41;;;20.46;29.59
45369;BME280;51342;55.250;37.668;2023-05-16T10:28:44;100170.63;;;20.45;29.60
45369;BME280;51342;55.250;37.668;2023-05-16T10:31:24;100159.72;;;20.30;28.66
45369;BME280;51342;55.250;37.668;2023-05-16T10:34:03;100162.13;;;20.21;28.82
45369;BME280;51342;55.250;37.668;2023-05-16T10:36:39;100156.03;;;20.22;28.27
45369;BME280;51342;55.250;37.668;2023-05-16T10:39:13;100157.91;;;20.26;28.99
45369;BME280;51342;55.250;37.668;2023-05-16T10:41:52;100158.06;;;20.33;29.72
45369;BME280;51342;55.250;37.668;2023-05-16T10:44:32;100150.47;;;20.44;29.17
45369;BME280;51342;55.250;37.668;2023-05-16T10:47:17;100161.16;;;20.50;28.77
45369;BME280;51342;55.250;37.668;2023-05-16T10:49:56;100156.81;;;20.52;29.80
45369;BME280;51342;55.250;37.668;2023-05-16T10:52:36;100150.78;;;20.56;31.37
45369;BME280;51342;55.250;37.668;2023-05-16T10:55:10;100143.94;;;20.63;29.82
45369;BME280;51342;55.250;37.668;2023-05-16T10:57:44;100153.69;;;20.67;29.76
45369;BME280;51342;55.250;37.668;2023-05-16T11:00:23;100152.81;;;20.68;28.84
45369;BME280;51342;55.250;37.668;2023-05-16T11:03:20;100138.69;;;20.64;29.05
45369;BME280;51342;55.250;37.668;2023-05-16T11:06:02;100136.28;;;20.72;30.52
45369;BME280;51342;55.250;37.668;2023-05-16T11:12:01;100142.66;;;20.82;29.39
45369;BME280;51342;55.250;37.668;2023-05-16T11:14:39;100132.25;;;20.88;29.85
45369;BME280;51342;55.250;37.668;2023-05-16T11:17:23;100131.41;;;20.89;30.46
45369;BME280;51342;55.250;37.668;2023-05-16T11:20:00;100131.44;;;20.90;28.11
45369;BME280;51342;55.250;37.668;2023-05-16T11:22:41;100135.84;;;20.91;28.75
45369;BME280;51342;55.250;37.668;2023-05-16T11:25:15;100128.63;;;20.83;28.08
45369;BME280;51342;55.250;37.668;2023-05-16T11:27:49;100122.41;;;20.79;29.14
45369;BME280;51342;55.250;37.668;2023-05-16T11:30:25;100130.28;;;20.78;29.67
45369;BME280;51342;55.250;37.668;2023-05-16T11:33:03;100119.66;;;20.75;28.05
45369;BME280;51342;55.250;37.668;2023-05-16T11:35:42;100119.63;;;20.72;28.37
45369;BME280;51342;55.250;37.668;2023-05-16T11:38:20;100115.41;;;20.80;30.27
45369;BME280;51342;55.250;37.668;2023-05-16T11:41:11;100110.22;;;20.83;29.44
45369;BME280;51342;55.250;37.668;2023-05-16T11:43:52;100107.66;;;20.86;29.31
45369;BME280;51342;55.250;37.668;2023-05-16T11:46:27;100114.75;;;20.88;29.49
45369;BME280;51342;55.250;37.668;2023-05-16T11:49:08;100119.13;;;20.88;29.63
45369;BME280;51342;55.250;37.668;2023-05-16T11:51:44;100120.88;;;20.87;30.23
45369;BME280;51342;55.250;37.668;2023-05-16T11:54:20;100120.75;;;20.83;29.66
45369;BME280;51342;55.250;37.668;2023-05-16T11:56:56;100125.06;;;20.81;29.87
45369;BME280;51342;55.250;37.668;2023-05-16T11:59:32;100122.44;;;20.81;30.31
45369;BME280;51342;55.250;37.668;2023-05-16T12:02:10;100123.28;;;20.78;29.20
45369;BME280;51342;55.250;37.668;2023-05-16T12:04:48;100110.00;;;20.74;29.92
45369;BME280;51342;55.250;37.668;2023-05-16T12:07:30;100124.00;;;20.71;30.65
45369;BME280;51342;55.250;37.668;2023-05-16T12:10:08;100123.09;;;20.71;30.71
45369;BME280;51342;55.250;37.668;2023-05-16T12:12:46;100121.31;;;20.70;30.47
45369;BME280;51342;55.250;37.668;2023-05-16T12:15:23;100106.19;;;20.59;30.19
45369;BME280;51342;55.250;37.668;2023-05-16T12:17:59;100112.41;;;20.64;30.66
45369;BME280;51342;55.250;37.668;2023-05-16T12:20:35;100115.97;;;20.65;30.24
45369;BME280;51342;55.250;37.668;2023-05-16T12:23:13;100121.25;;;20.67;30.31
45369;BME280;51342;55.250;37.668;2023-05-16T12:25:48;100110.66;;;20.63;29.34
45369;BME280;51342;55.250;37.668;2023-05-16T12:28:25;100104.50;;;20.63;29.65
45369;BME280;51342;55.250;37.668;2023-05-16T12:31:21;100098.34;;;20.62;29.79
45369;BME280;51342;55.250;37.668;2023-05-16T12:34:01;100101.97;;;20.68;30.00
45369;BME280;51342;55.250;37.668;2023-05-16T12:36:39;100096.75;;;20.69;30.16
45369;BME280;51342;55.250;37.668;2023-05-16T12:39:17;100094.22;;;20.72;30.43
45369;BME280;51342;55.250;37.668;2023-05-16T12:41:56;100094.22;;;20.72;30.35
45369;BME280;51342;55.250;37.668;2023-05-16T12:44:46;100089.81;;;20.71;30.90
45369;BME280;51342;55.250;37.668;2023-05-16T12:47:22;100091.75;;;20.80;30.68
45369;BME280;51342;55.250;37.668;2023-05-16T12:50:05;100096.19;;;20.82;30.60
45369;BME280;51342;55.250;37.668;2023-05-16T12:55:25;100098.72;;;20.78;30.01
45369;BME280;51342;55.250;37.668;2023-05-16T12:58:01;100098.72;;;20.78;29.81
45369;BME280;51342;55.250;37.668;2023-05-16T13:00:37;100099.63;;;20.80;30.52
45369;BME280;51342;55.250;37.668;2023-05-16T13:03:16;100089.88;;;20.76;30.20
45369;BME280;51342;55.250;37.668;2023-05-16T13:05:53;100095.13;;;20.74;29.46
45369;BME280;51342;55.250;37.668;2023-05-16T13:08:30;100090.72;;;20.73;30.25
45369;BME280;51342;55.250;37.668;2023-05-16T13:11:10;100094.13;;;20.69;29.46
45369;BME280;51342;55.250;37.668;2023-05-16T13:13:47;100089.69;;;20.67;29.78
45369;BME280;51342;55.250;37.668;2023-05-16T13:16:27;100092.25;;;20.63;30.28
45369;BME280;51342;55.250;37.668;2023-05-16T13:19:02;100092.22;;;20.62;29.88
45369;BME280;51342;55.250;37.668;2023-05-16T13:21:38;100087.78;;;20.59;30.17
45369;BME280;51342;55.250;37.668;2023-05-16T13:24:12;100078.97;;;20.59;29.59
45369;BME280;51342;55.250;37.668;2023-05-16T13:26:47;100079.03;;;20.60;29.79
45369;BME280;51342;55.250;37.668;2023-05-16T13:29:28;100077.28;;;20.59;29.33
45369;BME280;51342;55.250;37.668;2023-05-16T13:32:04;100071.09;;;20.59;29.21
45369;BME280;51342;55.250;37.668;2023-05-16T13:34:47;100079.81;;;20.56;30.32
45369;BME280;51342;55.250;37.668;2023-05-16T13:37:25;100077.09;;;20.53;30.34
45369;BME280;51342;55.250;37.668;2023-05-16T13:40:02;100083.31;;;20.55;30.06
45369;BME280;51342;55.250;37.668;2023-05-16T13:42:38;100079.59;;;20.47;29.81
45369;BME280;51342;55.250;37.668;2023-05-16T13:45:14;100068.97;;;20.43;30.21
45369;BME280;51342;55.250;37.668;2023-05-16T13:47:50;100073.34;;;20.42;29.83
45369;BME280;51342;55.250;37.668;2023-05-16T13:50:26;100082.84;;;20.37;29.79
45369;BME280;51342;55.250;37.668;2023-05-16T13:53:02;100071.25;;;20.29;30.04